Time;durP1;ratioP1;P1;durP2;ratioP2;P2;SDS_P1;SDS_P2;PMS_P1;PMS_P2;Temp;Humidity;BMP_temperature;BMP_pressure;BME280_temperature;BME280_humidity;BME280_pressure;Samples;Min_cycle;Max_cycle;Signal;HPM_P1;HPM_P2
2021/03/27 00:01:00;;;;;;;8.25;3.40;;;8.70;99.90;;;;;;4385252;32;20131;-75
2021/03/27 00:03:52;;;;;;;7.10;2.65;;;8.70;99.90;;;;;;4385440;32;20425;-74
2021/03/27 00:06:40;;;;;;;13.18;2.55;;;8.70;99.90;;;;;;4384263;32;20462;-74
2021/03/27 00:09:14;;;;;;;10.10;3.12;;;8.70;99.90;;;;;;4383855;32;20480;-74
2021/03/27 00:12:03;;;;;;;8.25;2.75;;;8.70;99.90;;;;;;4385858;32;20500;-74
2021/03/27 00:14:53;;;;;;;12.40;2.53;;;8.70;99.90;;;;;;4384756;32;20066;-74
2021/03/27 00:17:32;;;;;;;5.37;2.42;;;8.60;99.90;;;;;;4384226;32;20070;-74
2021/03/27 00:20:01;;;;;;;2.65;1.92;;;8.60;99.90;;;;;;4384712;32;20083;-74
2021/03/27 00:22:35;;;;;;;22.55;2.65;;;8.60;99.90;;;;;;4384880;32;20070;-74
2021/03/27 00:25:12;;;;;;;11.12;1.85;;;8.60;99.90;;;;;;4384632;32;20118;-74
2021/03/27 00:27:52;;;;;;;7.85;3.45;;;8.50;99.90;;;;;;4410752;27;20563;-77
2021/03/27 00:30:26;;;;;;;3.87;1.92;;;8.50;99.90;;;;;;4399799;32;20058;-78
2021/03/27 00:32:54;;;;;;;7.62;3.00;;;8.50;99.90;;;;;;4400597;32;20087;-78
2021/03/27 00:35:30;;;;;;;23.87;3.65;;;8.50;99.90;;;;;;4408111;32;20507;-77
2021/03/27 00:37:59;;;;;;;3.80;1.77;;;8.50;99.90;;;;;;4414740;32;20153;-77
2021/03/27 00:40:27;;;;;;;9.07;3.03;;;8.50;99.90;;;;;;4415917;32;20050;-77
2021/03/27 00:43:08;;;;;;;4.28;1.90;;;8.50;99.90;;;;;;4415784;32;20078;-77
2021/03/27 00:45:42;;;;;;;5.08;2.00;;;8.50;99.90;;;;;;4430354;27;20074;-75
2021/03/27 00:48:13;;;;;;;4.45;2.67;;;8.50;99.90;;;;;;4415192;32;20102;-75
2021/03/27 00:50:45;;;;;;;22.05;2.30;;;8.50;99.90;;;;;;4415350;32;20120;-75
2021/03/27 00:53:23;;;;;;;9.93;3.35;;;8.50;99.90;;;;;;4414970;32;20136;-75
2021/03/27 00:55:53;;;;;;;3.22;2.08;;;8.40;99.90;;;;;;4414114;32;20077;-76
2021/03/27 00:58:27;;;;;;;2.20;1.65;;;8.40;99.90;;;;;;4415014;32;20061;-75
2021/03/27 01:00:58;;;;;;;5.65;2.12;;;8.30;99.90;;;;;;4415498;32;20065;-75
2021/03/27 01:03:32;;;;;;;3.90;2.33;;;8.30;99.90;;;;;;4415121;32;20527;-75
2021/03/27 01:05:58;;;;;;;2.85;2.53;;;8.30;99.90;;;;;;4415057;32;20137;-76
2021/03/27 01:08:26;;;;;;;3.62;1.85;;;8.30;99.90;;;;;;4414866;32;20066;-75
2021/03/27 01:10:59;;;;;;;6.97;1.95;;;8.20;99.90;;;;;;4414291;32;20073;-75
2021/03/27 01:13:32;;;;;;;6.70;2.20;;;8.30;99.90;;;;;;4415075;32;20077;-75
2021/03/27 01:16:02;;;;;;;7.68;3.22;;;8.20;99.90;;;;;;4414713;32;20113;-75
2021/03/27 01:18:34;;;;;;;6.07;2.28;;;8.20;99.90;;;;;;4414727;32;20161;-75
2021/03/27 01:21:06;;;;;;;1.67;1.35;;;8.20;99.90;;;;;;4414462;32;20120;-76
2021/03/27 01:23:33;;;;;;;6.93;1.92;;;8.20;99.90;;;;;;4414622;32;20070;-75
2021/03/27 01:26:03;;;;;;;3.05;2.45;;;8.20;99.90;;;;;;4414238;32;20078;-75
2021/03/27 01:28:38;;;;;;;6.30;2.70;;;8.20;99.90;;;;;;4404215;32;20066;-76
2021/03/27 01:31:11;;;;;;;5.85;2.40;;;8.20;99.90;;;;;;4400203;32;20131;-75
2021/03/27 01:34:02;;;;;;;3.30;1.92;;;8.20;99.90;;;;;;4400952;32;20073;-75
2021/03/27 01:36:42;;;;;;;3.53;1.67;;;8.20;99.90;;;;;;4398655;32;20122;-75
2021/03/27 01:39:12;;;;;;;14.38;2.40;;;8.20;99.90;;;;;;4399957;32;20063;-76
2021/03/27 01:42:16;;;;;;;3.83;2.03;;;8.20;99.90;;;;;;4399720;32;20118;-76
2021/03/27 01:44:57;;;;;;;4.90;2.35;;;8.20;99.90;;;;;;4398024;32;20070;-75
2021/03/27 01:47:49;;;;;;;1.90;1.55;;;8.20;99.90;;;;;;4399961;32;20086;-75
2021/03/27 01:50:25;;;;;;;5.78;2.00;;;8.20;99.90;;;;;;4398154;32;20086;-74
2021/03/27 01:53:20;;;;;;;4.90;2.97;;;8.30;99.90;;;;;;4399503;32;20079;-75
2021/03/27 01:55:57;;;;;;;8.98;1.87;;;8.30;99.90;;;;;;4397331;32;20095;-75
2021/03/27 01:58:29;;;;;;;11.52;2.95;;;8.30;99.90;;;;;;4398074;32;20077;-76
2021/03/27 02:01:17;;;;;;;13.40;1.80;;;8.20;99.90;;;;;;4399388;32;20069;-75
2021/03/27 02:03:47;;;;;;;2.67;1.85;;;8.30;99.90;;;;;;4400140;32;20066;-75
2021/03/27 02:06:20;;;;;;;7.43;2.80;;;8.30;99.90;;;;;;4398652;32;20491;-75
2021/03/27 02:09:00;;;;;;;5.30;2.28;;;8.20;99.90;;;;;;4398563;32;20070;-75
2021/03/27 02:11:45;;;;;;;21.43;1.90;;;8.30;99.90;;;;;;4384699;32;20079;-74
2021/03/27 02:14:34;;;;;;;4.35;1.58;;;8.30;99.90;;;;;;4385786;32;20116;-75
2021/03/27 02:17:02;;;;;;;1.33;1.17;;;8.30;99.90;;;;;;4372614;32;20094;-75
2021/03/27 02:19:50;;;;;;;2.55;1.60;;;8.30;99.90;;;;;;4383580;32;20062;-75
2021/03/27 02:22:25;;;;;;;2.78;1.90;;;8.40;99.90;;;;;;4372643;32;20126;-75
2021/03/27 02:25:00;;;;;;;8.50;1.73;;;8.60;99.90;;;;;;4383183;32;20074;-75
2021/03/27 02:27:46;;;;;;;2.62;1.70;;;8.50;99.90;;;;;;4383056;32;20086;-75
2021/03/27 02:30:15;;;;;;;1.98;1.75;;;8.40;99.90;;;;;;4383801;32;20114;-76
2021/03/27 02:32:52;;;;;;;1.87;1.52;;;8.30;99.90;;;;;;4383457;32;20486;-75
2021/03/27 02:35:42;;;;;;;6.28;2.75;;;8.20;99.90;;;;;;4383674;32;20069;-75
2021/03/27 02:38:26;;;;;;;1.90;1.73;;;8.10;99.90;;;;;;4371890;32;20146;-75
2021/03/27 02:41:21;;;;;;;1.75;1.65;;;8.10;99.90;;;;;;4384298;32;20121;-77
2021/03/27 02:44:03;;;;;;;2.67;1.77;;;8.10;99.90;;;;;;4383382;32;20066;-75
2021/03/27 02:46:42;;;;;;;16.10;2.22;;;8.10;99.90;;;;;;4383512;32;20409;-75
2021/03/27 02:49:34;;;;;;;7.35;2.53;;;8.00;99.90;;;;;;4371091;32;20136;-76
2021/03/27 02:52:39;;;;;;;2.42;1.42;;;8.10;99.90;;;;;;4373015;32;20510;-75
2021/03/27 02:55:42;;;;;;;4.32;1.87;;;8.10;99.90;;;;;;4371692;32;20071;-75
2021/03/27 02:58:22;;;;;;;7.50;1.87;;;8.00;99.90;;;;;;4372220;32;20058;-75
2021/03/27 03:01:16;;;;;;;2.03;1.58;;;8.00;99.90;;;;;;4383286;32;20086;-75
2021/03/27 03:03:51;;;;;;;4.30;2.20;;;8.10;99.90;;;;;;4373886;32;20442;-75
2021/03/27 03:06:42;;;;;;;8.88;2.87;;;8.10;99.90;;;;;;4384632;32;20095;-75
2021/03/27 03:09:33;;;;;;;1.48;1.35;;;8.10;99.90;;;;;;4387460;32;20067;-74
2021/03/27 03:12:13;;;;;;;3.37;1.30;;;8.10;99.90;;;;;;4399923;32;20132;-75
2021/03/27 03:14:56;;;;;;;2.33;1.67;;;8.20;99.90;;;;;;4400835;32;20074;-75
2021/03/27 03:17:40;;;;;;;4.65;1.90;;;8.10;99.90;;;;;;4401740;32;20137;-74
2021/03/27 03:20:42;;;;;;;1.40;1.23;;;8.20;99.90;;;;;;4401210;32;20529;-74
2021/03/27 03:23:37;;;;;;;6.07;1.87;;;8.20;99.90;;;;;;4400254;32;20070;-74
2021/03/27 03:26:09;;;;;;;8.93;3.58;;;8.20;99.90;;;;;;4389163;32;20078;-75
2021/03/27 03:28:48;;;;;;;2.35;1.65;;;8.20;99.90;;;;;;4400868;32;20073;-75
2021/03/27 03:31:22;;;;;;;3.83;1.48;;;8.20;99.90;;;;;;4400478;32;20540;-74
2021/03/27 03:34:12;;;;;;;5.30;1.55;;;8.40;99.90;;;;;;4401471;32;20126;-75
2021/03/27 03:37:00;;;;;;;1.37;1.08;;;8.50;99.90;;;;;;4400049;32;20062;-74
2021/03/27 03:40:05;;;;;;;3.08;1.75;;;8.50;99.90;;;;;;4400604;32;20073;-75
2021/03/27 03:42:59;;;;;;;2.97;1.95;;;8.70;99.90;;;;;;4397763;32;20344;-75
2021/03/27 03:45:30;;;;;;;3.28;1.55;;;8.70;99.90;;;;;;4400217;32;20470;-75
2021/03/27 03:48:17;;;;;;;3.65;1.83;;;8.70;99.90;;;;;;4400357;32;20508;-75
2021/03/27 03:50:57;;;;;;;3.22;1.35;;;8.80;99.90;;;;;;4399346;32;20082;-75
2021/03/27 03:53:38;;;;;;;10.57;2.45;;;8.70;99.90;;;;;;4400300;32;20070;-75
2021/03/27 03:56:23;;;;;;;;;;;8.80;99.90;;;;;;4401573;32;20125;-75
2021/03/27 03:59:12;;;;;;;0.80;0.80;;;8.70;99.90;;;;;;4389067;32;19993;-73
2021/03/27 04:01:58;;;;;;;3.53;1.50;;;8.70;99.90;;;;;;4400705;32;20453;-74
2021/03/27 04:04:28;;;;;;;5.37;1.35;;;8.60;99.90;;;;;;4399643;32;20085;-74
2021/03/27 04:07:04;;;;;;;11.32;4.62;;;8.60;99.90;;;;;;4400202;32;20154;-74
2021/03/27 04:09:44;;;;;;;7.12;1.80;;;8.60;99.90;;;;;;4397916;32;20070;-74
2021/03/27 04:12:19;;;;;;;2.28;1.73;;;8.50;99.90;;;;;;4401059;32;20066;-74
2021/03/27 04:14:48;;;;;;;9.77;2.05;;;8.40;99.90;;;;;;4400242;32;20099;-74
2021/03/27 04:17:23;;;;;;;4.22;1.20;;;8.50;99.90;;;;;;4400086;32;20097;-75
2021/03/27 04:19:56;;;;;;;3.58;1.50;;;8.60;99.90;;;;;;4400197;32;20065;-74
2021/03/27 04:22:29;;;;;;;2.47;1.08;;;8.60;99.90;;;;;;4400838;32;20409;-75
2021/03/27 04:25:24;;;;;;;5.40;1.48;;;8.70;99.90;;;;;;4400518;32;20071;-75
2021/03/27 04:27:58;;;;;;;1.83;1.08;;;8.80;99.90;;;;;;4399348;32;20506;-74
2021/03/27 04:30:26;;;;;;;2.80;1.50;;;8.90;99.90;;;;;;4400139;32;20440;-75
2021/03/27 04:33:17;;;;;;;1.00;1.00;;;8.80;99.90;;;;;;4398802;32;20082;-74
2021/03/27 04:35:52;;;;;;;1.45;1.12;;;8.60;99.90;;;;;;4399675;32;20125;-74
2021/03/27 04:38:40;;;;;;;20.25;1.58;;;8.70;99.90;;;;;;4399659;32;20074;-74
2021/03/27 04:41:31;;;;;;;5.40;1.25;;;8.70;99.90;;;;;;4401299;32;20082;-76
2021/03/27 04:44:22;;;;;;;2.62;1.58;;;8.70;99.90;;;;;;4399634;32;20121;-74
2021/03/27 04:46:57;;;;;;;37.67;1.60;;;8.70;99.90;;;;;;4399008;32;20169;-74
2021/03/27 04:49:50;;;;;;;2.22;1.73;;;8.60;99.90;;;;;;4400509;32;20144;-75
2021/03/27 04:52:40;;;;;;;2.33;1.42;;;8.60;99.90;;;;;;4400219;32;20137;-75
2021/03/27 04:55:29;;;;;;;5.40;2.33;;;8.60;99.90;;;;;;4398744;32;20086;-74
2021/03/27 04:58:26;;;;;;;8.65;2.78;;;8.60;99.90;;;;;;4400241;32;20066;-74
2021/03/27 05:01:15;;;;;;;1.42;1.25;;;8.60;99.90;;;;;;4399048;32;20606;-76
2021/03/27 05:04:09;;;;;;;1.90;1.20;;;8.60;99.90;;;;;;4398966;32;20117;-75
2021/03/27 05:06:48;;;;;;;1.90;1.20;;;8.50;99.90;;;;;;4398816;32;20445;-74
2021/03/27 05:09:39;;;;;;;1.40;1.10;;;8.60;99.90;;;;;;4402040;32;20074;-75
2021/03/27 05:12:23;;;;;;;1.70;1.52;;;8.60;99.90;;;;;;4413930;32;20090;-75
2021/03/27 05:15:15;;;;;;;2.08;1.50;;;8.70;99.90;;;;;;4415204;32;20086;-75
2021/03/27 05:17:46;;;;;;;1.00;1.00;;;8.80;99.90;;;;;;4415159;32;20606;-75
2021/03/27 05:20:18;;;;;;;1.30;1.20;;;8.70;99.90;;;;;;4415303;32;20079;-75
2021/03/27 05:22:56;;;;;;;2.53;1.05;;;8.70;99.90;;;;;;4415196;32;20077;-75
2021/03/27 05:25:25;;;;;;;1.35;1.25;;;8.80;99.90;;;;;;4414573;32;20068;-75
2021/03/27 05:28:08;;;;;;;6.85;1.12;;;8.80;99.90;;;;;;4414621;32;20076;-75
2021/03/27 05:31:13;;;;;;;2.85;1.62;;;8.90;99.90;;;;;;4414605;32;20066;-75
2021/03/27 05:34:02;;;;;;;1.20;1.00;;;8.90;99.90;;;;;;4412035;32;20128;-75
2021/03/27 05:36:39;;;;;;;3.85;1.45;;;8.90;99.90;;;;;;4414649;32;20470;-74
2021/03/27 05:39:23;;;;;;;5.53;1.48;;;8.90;99.90;;;;;;4414759;32;20081;-74
2021/03/27 05:42:29;;;;;;;3.58;1.35;;;8.90;99.90;;;;;;4414482;32;20413;-74
2021/03/27 05:45:34;;;;;;;1.95;1.23;;;9.00;99.90;;;;;;4411728;32;20514;-74
2021/03/27 05:48:39;;;;;;;1.87;1.40;;;9.10;99.90;;;;;;4411442;32;20087;-75
2021/03/27 05:51:45;;;;;;;4.10;1.23;;;9.10;99.90;;;;;;4411653;32;20085;-75
2021/03/27 05:54:35;;;;;;;1.65;1.30;;;9.20;99.90;;;;;;4411952;32;20113;-75
2021/03/27 05:57:22;;;;;;;2.30;1.60;;;9.20;99.90;;;;;;4412069;32;20093;-75
2021/03/27 05:59:51;;;;;;;1.48;1.37;;;9.10;99.90;;;;;;4413089;32;20122;-75
2021/03/27 06:02:40;;;;;;;4.15;1.42;;;9.10;99.90;;;;;;4412649;32;20080;-75
2021/03/27 06:05:45;;;;;;;2.60;1.02;;;9.20;99.90;;;;;;4414636;32;20502;-75
2021/03/27 06:08:13;;;;;;;1.05;1.00;;;9.30;99.90;;;;;;4410158;32;20132;-75
2021/03/27 06:11:06;;;;;;;5.35;1.92;;;9.30;99.90;;;;;;4402736;32;20066;-75
2021/03/27 06:14:03;;;;;;;7.50;1.87;;;9.40;99.90;;;;;;4399312;32;20073;-75
2021/03/27 06:16:39;;;;;;;0.80;0.80;;;9.30;99.90;;;;;;4397909;32;20066;-75
2021/03/27 06:19:27;;;;;;;13.02;1.17;;;9.20;99.90;;;;;;4398637;32;20079;-74
2021/03/27 06:22:12;;;;;;;2.35;1.27;;;9.30;99.90;;;;;;4398845;32;20066;-75
2021/03/27 06:24:58;;;;;;;2.00;1.23;;;9.40;99.90;;;;;;4398684;32;20065;-75
2021/03/27 06:27:49;;;;;;;2.37;1.48;;;9.40;99.90;;;;;;4397605;32;20523;-75
2021/03/27 06:30:41;;;;;;;2.80;1.23;;;9.50;99.90;;;;;;4397593;32;20070;-75
2021/03/27 06:33:21;;;;;;;3.28;1.65;;;9.50;99.90;;;;;;4398616;32;20440;-76
2021/03/27 06:36:09;;;;;;;1.85;0.70;;;9.60;99.90;;;;;;4398660;32;20162;-76
2021/03/27 06:38:56;;;;;;;2.08;1.35;;;9.80;99.90;;;;;;4397486;32;20081;-76
2021/03/27 06:41:46;;;;;;;2.28;1.58;;;9.90;99.90;;;;;;4397997;32;20408;-76
2021/03/27 06:44:33;;;;;;;1.75;0.93;;;10.00;99.90;;;;;;4400809;32;20507;-76
2021/03/27 06:47:38;;;;;;;6.45;1.23;;;10.00;99.90;;;;;;4400607;32;20167;-75
2021/03/27 06:50:22;;;;;;;2.35;1.58;;;10.10;99.90;;;;;;4397892;32;20069;-76
2021/03/27 06:53:14;;;;;;;1.12;0.80;;;10.00;99.90;;;;;;4401352;32;20089;-75
2021/03/27 06:55:55;;;;;;;0.85;0.82;;;10.00;99.90;;;;;;4401177;32;20389;-75
2021/03/27 06:58:32;;;;;;;;;;;10.10;99.90;;;;;;4401661;32;20121;-75
2021/03/27 07:01:38;;;;;;;2.42;1.60;;;10.20;99.90;;;;;;4401077;32;19981;-75
2021/03/27 07:04:35;;;;;;;0.75;0.75;;;10.20;99.90;;;;;;4399661;32;20057;-75
2021/03/27 07:07:30;;;;;;;3.08;1.62;;;10.30;99.90;;;;;;4401006;32;20566;-75
2021/03/27 07:10:08;;;;;;;0.77;0.77;;;10.30;99.90;;;;;;4393623;32;20086;-75
2021/03/27 07:13:12;;;;;;;17.77;1.48;;;10.20;99.90;;;;;;4385613;32;20066;-75
2021/03/27 07:15:49;;;;;;;1.02;0.85;;;10.20;99.90;;;;;;4385803;32;20137;-75
2021/03/27 07:18:41;;;;;;;6.43;1.67;;;10.00;99.90;;;;;;4386524;32;20051;-75
2021/03/27 07:21:49;;;;;;;0.82;0.80;;;9.90;99.90;;;;;;4386352;32;20091;-75
2021/03/27 07:24:43;;;;;;;2.33;0.90;;;9.80;99.90;;;;;;4382459;32;20058;-75
2021/03/27 07:27:19;;;;;;;3.10;1.12;;;9.60;99.90;;;;;;4383217;32;20143;-75
2021/03/27 07:30:09;;;;;;;2.80;0.88;;;9.50;99.90;;;;;;4383903;32;20062;-75
2021/03/27 07:33:02;;;;;;;1.10;1.00;;;9.40;99.90;;;;;;4385734;32;20230;-75
2021/03/27 07:36:07;;;;;;;1.87;1.02;;;9.50;99.90;;;;;;4385521;32;20417;-75
2021/03/27 07:38:55;;;;;;;1.90;1.48;;;9.50;99.90;;;;;;4382597;32;20062;-75
2021/03/27 07:41:46;;;;;;;1.35;1.25;;;9.40;99.90;;;;;;4387841;32;20069;-75
2021/03/27 07:44:20;;;;;;;3.03;1.95;;;9.50;99.90;;;;;;4393923;32;20074;-75
2021/03/27 07:47:09;;;;;;;1.85;1.30;;;9.50;99.90;;;;;;4399144;32;20070;-75
2021/03/27 07:49:56;;;;;;;0.90;0.90;;;9.50;99.90;;;;;;4399802;32;20062;-75
2021/03/27 07:52:31;;;;;;;7.00;1.77;;;9.50;99.90;;;;;;4389690;32;20519;-75
2021/03/27 07:55:29;;;;;;;1.23;0.85;;;9.40;99.90;;;;;;4383409;32;20065;-75
2021/03/27 07:58:23;;;;;;;2.22;1.42;;;9.30;99.90;;;;;;4372944;32;20075;-75
2021/03/27 08:01:10;;;;;;;1.75;1.17;;;9.30;99.90;;;;;;4373778;32;20134;-74
2021/03/27 08:04:04;;;;;;;0.62;0.62;;;9.30;99.90;;;;;;4385809;32;20062;-75
2021/03/27 08:06:53;;;;;;;0.95;0.95;;;9.30;99.90;;;;;;4363908;32;20074;-74
2021/03/27 08:09:32;;;;;;;0.40;0.40;;;9.20;99.90;;;;;;4377898;32;20505;-75
2021/03/27 08:12:19;;;;;;;1.95;0.60;;;8.60;99.90;;;;;;4400590;32;20066;-74
2021/03/27 08:15:04;;;;;;;0.90;0.88;;;8.40;99.90;;;;;;4398548;32;20220;-75
2021/03/27 08:17:58;;;;;;;0.40;0.40;;;8.20;99.90;;;;;;4400133;32;20074;-75
2021/03/27 08:20:48;;;;;;;0.62;0.62;;;8.20;99.90;;;;;;4398894;32;20070;-75
2021/03/27 08:23:24;;;;;;;0.20;0.20;;;8.10;99.90;;;;;;4382249;32;20421;-75
2021/03/27 08:26:11;;;;;;;0.30;0.30;;;8.00;99.90;;;;;;4409305;32;20526;-74
2021/03/27 08:29:10;;;;;;;0.30;0.30;;;8.10;99.90;;;;;;4397561;32;20094;-74
2021/03/27 08:32:16;;;;;;;0.30;0.30;;;8.00;99.90;;;;;;4398125;32;20065;-75
2021/03/27 08:34:58;;;;;;;0.40;0.40;;;7.90;99.90;;;;;;4397112;32;20472;-74
2021/03/27 08:38:04;;;;;;;0.25;0.25;;;8.00;99.90;;;;;;4399735;32;20063;-74
2021/03/27 08:40:53;;;;;;;0.30;0.30;;;7.80;99.90;;;;;;4396316;32;20074;-75
2021/03/27 08:43:47;;;;;;;0.30;0.30;;;7.60;99.90;;;;;;4398573;32;20065;-75
2021/03/27 08:46:52;;;;;;;0.30;0.30;;;7.30;99.90;;;;;;4399085;32;20573;-75
2021/03/27 08:49:58;;;;;;;0.40;0.40;;;7.20;99.90;;;;;;4397472;32;20062;-75
2021/03/27 08:52:56;;;;;;;0.30;0.30;;;7.10;99.90;;;;;;4397404;32;20436;-74
2021/03/27 08:55:40;;;;;;;0.30;0.30;;;7.00;99.90;;;;;;4398974;32;20069;-74
2021/03/27 08:58:13;;;;;;;0.30;0.30;;;7.00;99.90;;;;;;4401193;32;20070;-75
2021/03/27 09:01:15;;;;;;;0.40;0.40;;;7.00;99.90;;;;;;4399465;32;20103;-75
2021/03/27 09:04:10;;;;;;;0.40;0.40;;;7.00;99.90;;;;;;4408434;32;20453;-75
2021/03/27 09:07:05;;;;;;;0.47;0.47;;;7.20;99.90;;;;;;4398581;32;20065;-74
2021/03/27 09:10:07;;;;;;;0.30;0.30;;;7.30;99.90;;;;;;4413269;32;20076;-75
2021/03/27 09:12:52;;;;;;;0.40;0.40;;;7.20;99.90;;;;;;4414058;32;20065;-75
2021/03/27 09:15:36;;;;;;;0.40;0.40;;;7.00;99.90;;;;;;4415596;32;20082;-75
2021/03/27 09:18:10;;;;;;;0.30;0.30;;;7.00;99.90;;;;;;4414560;32;20482;-75
2021/03/27 09:21:02;;;;;;;0.40;0.40;;;7.00;99.90;;;;;;4414219;32;20532;-75
2021/03/27 09:23:48;;;;;;;0.30;0.30;;;7.00;99.90;;;;;;4414102;32;20408;-75
2021/03/27 09:26:44;;;;;;;0.40;0.40;;;7.10;99.90;;;;;;4410333;32;20077;-75
2021/03/27 09:29:32;;;;;;;0.37;0.37;;;7.10;99.90;;;;;;4414190;32;20530;-75
2021/03/27 09:32:08;;;;;;;0.32;0.32;;;7.10;99.90;;;;;;4413632;32;20066;-75
2021/03/27 09:35:16;;;;;;;0.35;0.35;;;7.30;99.90;;;;;;4415181;32;20070;-75
2021/03/27 09:38:14;;;;;;;0.30;0.30;;;7.40;99.90;;;;;;4408375;32;96456;-75
2021/03/27 09:41:12;;;;;;;0.20;0.20;;;7.40;99.90;;;;;;4413277;32;20540;-75
2021/03/27 09:44:01;;;;;;;0.40;0.40;;;7.40;99.90;;;;;;4400050;32;20508;-75
2021/03/27 09:46:53;;;;;;;0.40;0.40;;;7.50;99.90;;;;;;4384540;32;20615;-75
2021/03/27 09:49:55;;;;;;;0.37;0.37;;;7.50;99.90;;;;;;4372922;32;20572;-75
2021/03/27 09:52:26;;;;;;;0.30;0.30;;;7.50;99.90;;;;;;4387324;32;20079;-75
2021/03/27 09:55:17;;;;;;;0.30;0.30;;;7.80;99.90;;;;;;4398731;32;20507;-75
2021/03/27 09:57:54;;;;;;;0.30;0.30;;;7.70;99.90;;;;;;4398772;32;20074;-75
2021/03/27 10:00:41;;;;;;;0.30;0.30;;;7.70;99.90;;;;;;4399423;32;20062;-75
2021/03/27 10:03:46;;;;;;;0.40;0.40;;;7.70;99.90;;;;;;4388052;32;20495;-75
2021/03/27 10:06:51;;;;;;;0.43;0.43;;;7.70;99.90;;;;;;4387755;32;20131;-76
2021/03/27 10:09:30;;;;;;;0.50;0.50;;;7.60;99.90;;;;;;4379402;32;20491;-75
2021/03/27 10:12:04;;;;;;;0.43;0.43;;;7.60;99.90;;;;;;4399620;32;20077;-76
2021/03/27 10:14:35;;;;;;;0.50;0.50;;;7.70;99.90;;;;;;4400340;32;20397;-75
2021/03/27 10:17:15;;;;;;;0.30;0.30;;;7.90;99.90;;;;;;4398145;32;20059;-75
2021/03/27 10:19:44;;;;;;;0.40;0.40;;;7.90;99.90;;;;;;4399107;32;20122;-74
2021/03/27 10:22:31;;;;;;;0.30;0.30;;;7.90;99.90;;;;;;4399672;32;20523;-75
2021/03/27 10:25:08;;;;;;;0.40;0.40;;;8.00;99.90;;;;;;4397953;32;20078;-74
2021/03/27 10:27:53;;;;;;;0.30;0.30;;;8.30;99.90;;;;;;4399122;32;20070;-75
2021/03/27 10:30:30;;;;;;;0.40;0.32;;;8.50;99.90;;;;;;4399478;32;20065;-76
2021/03/27 10:33:21;;;;;;;0.40;0.40;;;8.60;99.90;;;;;;4399425;32;20128;-75
2021/03/27 10:35:50;;;;;;;0.35;0.35;;;8.80;99.90;;;;;;4403697;32;20136;-75
2021/03/27 10:38:53;;;;;;;0.40;0.40;;;9.20;99.90;;;;;;4414183;32;20090;-76
2021/03/27 10:41:27;;;;;;;0.40;0.40;;;9.50;99.90;;;;;;4413471;32;20065;-76
2021/03/27 10:44:07;;;;;;;0.55;0.50;;;10.20;99.90;;;;;;4414106;32;20062;-76
2021/03/27 10:46:44;;;;;;;0.43;0.43;;;10.30;99.90;;;;;;4414460;32;20074;-75
2021/03/27 10:49:14;;;;;;;0.30;0.30;;;10.10;99.90;;;;;;4414051;32;20062;-75
2021/03/27 10:52:05;;;;;;;6.37;0.77;;;9.80;99.90;;;;;;4414076;32;20077;-76
2021/03/27 10:55:11;;;;;;;0.40;0.40;;;9.50;99.90;;;;;;4412814;32;20538;-76
2021/03/27 10:58:16;;;;;;;0.40;0.40;;;9.50;99.90;;;;;;4410778;32;20073;-75
2021/03/27 11:01:18;;;;;;;0.50;0.50;;;9.40;99.90;;;;;;4410795;32;20563;-75
2021/03/27 11:04:08;;;;;;;0.62;0.62;;;9.10;99.90;;;;;;4413337;32;20186;-75
2021/03/27 11:06:56;;;;;;;0.30;0.30;;;9.10;99.90;;;;;;4412734;32;20583;-75
2021/03/27 11:10:01;;;;;;;0.45;0.45;;;9.20;99.90;;;;;;4407523;32;20464;-75
2021/03/27 11:12:35;;;;;;;0.68;0.68;;;9.50;99.90;;;;;;4389465;32;20107;-76
2021/03/27 11:15:31;;;;;;;0.40;0.40;;;10.00;99.90;;;;;;4398933;32;20082;-75
2021/03/27 11:18:37;;;;;;;0.40;0.40;;;10.50;99.90;;;;;;4387253;32;20412;-76
2021/03/27 11:21:17;;;;;;;1.12;1.05;;;10.70;99.90;;;;;;4389763;32;20078;-76
2021/03/27 11:23:46;;;;;;;1.80;1.07;;;10.90;99.90;;;;;;4399260;32;20057;-76
2021/03/27 11:26:37;;;;;;;0.30;0.30;;;11.00;99.90;;;;;;4401086;32;20078;-77
2021/03/27 11:29:32;;;;;;;0.57;0.50;;;11.40;99.90;;;;;;4392235;32;20051;-76
2021/03/27 11:32:09;;;;;;;0.40;0.40;;;12.10;99.90;;;;;;4391952;32;20054;-75
2021/03/27 11:34:44;;;;;;;0.40;0.40;;;12.10;99.90;;;;;;4388268;32;20083;-76
2021/03/27 11:37:32;;;;;;;0.50;0.50;;;12.50;99.90;;;;;;4399729;32;20135;-76
2021/03/27 11:40:15;;;;;;;0.32;0.32;;;12.60;99.90;;;;;;4387463;32;20058;-75
2021/03/27 11:43:12;;;;;;;0.75;0.75;;;12.60;99.90;;;;;;4402442;32;20526;-76
2021/03/27 11:45:44;;;;;;;0.30;0.30;;;12.50;99.90;;;;;;4391674;32;20095;-75
2021/03/27 11:48:34;;;;;;;0.30;0.30;;;12.30;99.90;;;;;;4401357;32;20054;-75
2021/03/27 11:51:08;;;;;;;0.30;0.30;;;12.50;99.90;;;;;;4400875;32;20121;-76
2021/03/27 11:53:58;;;;;;;0.40;0.40;;;12.70;99.90;;;;;;4400384;32;20054;-75
2021/03/27 11:56:43;;;;;;;0.45;0.45;;;12.50;99.90;;;;;;4403738;32;20058;-75
2021/03/27 12:01:26;;;;;;;0.30;0.30;;;12.20;99.90;;;;;;4408027;32;20061;-75
2021/03/27 12:02:23;;;;;;;0.62;0.62;;;12.00;99.90;;;;;;4391309;32;20522;-76
2021/03/27 12:05:09;;;;;;;0.30;0.30;;;11.70;99.90;;;;;;4400808;32;20078;-76
2021/03/27 12:08:00;;;;;;;4.47;0.62;;;11.70;99.90;;;;;;4396055;32;20071;-76
2021/03/27 12:10:56;;;;;;;0.40;0.40;;;12.50;99.90;;;;;;4399625;32;20502;-76
2021/03/27 12:13:32;;;;;;;2.45;1.37;;;13.50;99.90;;;;;;4400639;32;20082;-75
2021/03/27 12:16:08;;;;;;;0.37;0.37;;;14.40;98.60;;;;;;4400760;32;20484;-74
2021/03/27 12:18:47;;;;;;;0.30;0.30;;;14.50;96.00;;;;;;4400979;32;20424;-75
2021/03/27 12:21:22;;;;;;;0.30;0.30;;;14.90;94.70;;;;;;4388910;32;20535;-75
2021/03/27 12:24:05;;;;;;;0.30;0.30;;;15.10;94.00;;;;;;4400606;32;20559;-76
2021/03/27 12:26:34;;;;;;;0.20;0.20;;;15.60;92.90;;;;;;4397767;32;20078;-75
2021/03/27 12:29:10;;;;;;;0.50;0.50;;;14.90;90.50;;;;;;4399930;32;20054;-74
2021/03/27 12:31:48;;;;;;;0.30;0.30;;;13.80;91.50;;;;;;4404764;32;20124;-75
2021/03/27 12:34:21;;;;;;;1.00;0.73;;;12.90;92.40;;;;;;4402087;32;20086;-75
2021/03/27 12:37:15;;;;;;;0.55;0.55;;;12.60;94.10;;;;;;4402879;32;20070;-75
2021/03/27 12:39:49;;;;;;;0.30;0.30;;;13.00;94.10;;;;;;4399632;32;20113;-75
2021/03/27 12:42:20;;;;;;;0.40;0.40;;;14.10;92.70;;;;;;4400712;32;20522;-75
2021/03/27 12:44:57;;;;;;;0.40;0.40;;;14.30;90.60;;;;;;4400643;32;20421;-75
2021/03/27 12:47:40;;;;;;;0.68;0.57;;;13.90;90.90;;;;;;4400109;32;20066;-75
2021/03/27 12:50:14;;;;;;;0.40;0.40;;;13.00;91.90;;;;;;4400432;32;20483;-75
2021/03/27 12:52:50;;;;;;;26.10;1.80;;;12.80;93.60;;;;;;4401706;32;20066;-75
2021/03/27 12:55:38;;;;;;;0.32;0.32;;;12.40;93.00;;;;;;4399366;32;20070;-75
2021/03/27 12:58:15;;;;;;;0.30;0.30;;;11.00;99.90;;;;;;4397437;32;20062;-76
2021/03/27 13:00:50;;;;;;;0.30;0.30;;;10.10;99.90;;;;;;4400944;32;20495;-76
2021/03/27 13:03:35;;;;;;;0.57;0.57;;;9.40;99.90;;;;;;4401474;32;20062;-76
2021/03/27 13:06:37;;;;;;;0.35;0.35;;;9.00;99.90;;;;;;4400260;32;20485;-76
2021/03/27 13:09:22;;;;;;;0.40;0.40;;;8.80;99.90;;;;;;4400989;32;20058;-75
2021/03/27 13:12:11;;;;;;;0.30;0.30;;;8.90;99.90;;;;;;4414537;32;20061;-74
2021/03/27 13:15:17;;;;;;;0.30;0.30;;;8.80;99.90;;;;;;4415798;32;20746;-76
2021/03/27 13:17:56;;;;;;;0.30;0.30;;;9.00;99.90;;;;;;4405612;32;20540;-75
2021/03/27 13:20:31;;;;;;;0.30;0.30;;;9.10;99.90;;;;;;4404910;32;20065;-75
2021/03/27 13:23:16;;;;;;;0.30;0.30;;;9.30;99.90;;;;;;4407170;32;20518;-75
2021/03/27 13:25:57;;;;;;;0.30;0.30;;;10.10;99.90;;;;;;4398940;32;20062;-76
2021/03/27 13:28:49;;;;;;;0.40;0.40;;;10.80;99.90;;;;;;4400964;32;20493;-76
2021/03/27 13:31:19;;;;;;;0.30;0.30;;;10.50;99.90;;;;;;4393182;32;20032;-76
2021/03/27 13:34:07;;;;;;;0.30;0.30;;;10.00;99.90;;;;;;4412418;32;20065;-76
2021/03/27 13:36:47;;;;;;;0.30;0.30;;;9.90;99.90;;;;;;4395764;32;20117;-76
2021/03/27 13:39:38;;;;;;;0.75;0.40;;;9.30;99.90;;;;;;4397878;32;20058;-76
2021/03/27 13:42:20;;;;;;;0.30;0.30;;;9.00;99.90;;;;;;4396249;32;20062;-75
2021/03/27 13:45:00;;;;;;;1.50;0.50;;;8.80;99.90;;;;;;4401905;32;20065;-75
2021/03/27 13:47:47;;;;;;;0.40;0.40;;;8.70;99.90;;;;;;4399511;32;20459;-75
2021/03/27 13:50:35;;;;;;;0.30;0.30;;;8.60;99.90;;;;;;4389149;32;20079;-75
2021/03/27 13:53:14;;;;;;;0.20;0.20;;;8.30;99.90;;;;;;4389362;32;20058;-74
2021/03/27 13:56:06;;;;;;;0.30;0.30;;;8.00;99.90;;;;;;4399065;32;20463;-75
2021/03/27 13:58:40;;;;;;;0.30;0.30;;;7.80;99.90;;;;;;4399663;32;20108;-75
2021/03/27 14:01:32;;;;;;;0.40;0.40;;;7.90;99.90;;;;;;4401152;32;20635;-75
2021/03/27 14:04:23;;;;;;;0.30;0.30;;;8.00;99.90;;;;;;4388311;32;20089;-75
2021/03/27 14:07:03;;;;;;;0.30;0.30;;;8.00;99.90;;;;;;4384003;32;20394;-74
2021/03/27 14:09:35;;;;;;;0.30;0.30;;;7.90;99.90;;;;;;4400950;32;20074;-74
2021/03/27 14:12:13;;;;;;;0.30;0.30;;;7.90;99.90;;;;;;4385759;32;20062;-75
2021/03/27 14:15:01;;;;;;;0.30;0.30;;;8.00;99.90;;;;;;4400776;32;20125;-75
2021/03/27 14:17:48;;;;;;;0.30;0.30;;;7.90;99.90;;;;;;4399064;32;20125;-74
2021/03/27 14:20:41;;;;;;;0.32;0.32;;;8.00;99.90;;;;;;4398981;32;20385;-75
2021/03/27 14:23:46;;;;;;;0.40;0.40;;;7.80;99.90;;;;;;4410177;32;20344;-75
2021/03/27 14:26:21;;;;;;;0.62;0.62;;;7.80;99.90;;;;;;4397391;32;20126;-74